sensor_id;sensor_type;location;lat;lon;timestamp;temperature;humidity
55642;DHT22;41509;53.108;6.100;2022-09-09T00:11:24;15.10;99.90
55642;DHT22;41509;53.108;6.100;2022-09-09T00:14:06;15.00;99.90
55642;DHT22;41509;53.108;6.100;2022-09-09T00:23:54;15.00;99.90
55642;DHT22;41509;53.108;6.100;2022-09-09T00:29:09;14.90;99.90
55642;DHT22;41509;53.108;6.100;2022-09-09T00:31:38;14.90;99.90
55642;DHT22;41509;53.108;6.100;2022-09-09T00:34:13;14.90;99.90
55642;DHT22;41509;53.108;6.100;2022-09-09T00:36:42;14.90;99.90
55642;DHT22;41509;53.108;6.100;2022-09-09T00:39:43;14.90;99.90
55642;DHT22;41509;53.108;6.100;2022-09-09T00:56:13;14.80;99.90
55642;DHT22;41509;53.108;6.100;2022-09-09T01:02:17;14.70;99.90
55642;DHT22;41509;53.108;6.100;2022-09-09T01:05:04;14.70;99.90
55642;DHT22;41509;53.108;6.100;2022-09-09T01:10:53;14.70;99.90
55642;DHT22;41509;53.108;6.100;2022-09-09T01:13:46;14.70;99.90
55642;DHT22;41509;53.108;6.100;2022-09-09T01:20:23;14.80;99.90
55642;DHT22;41509;53.108;6.100;2022-09-09T01:26:23;14.80;99.90
55642;DHT22;41509;53.108;6.100;2022-09-09T01:28:52;14.70;99.90
55642;DHT22;41509;53.108;6.100;2022-09-09T01:31:41;14.80;99.90
55642;DHT22;41509;53.108;6.100;2022-09-09T01:34:18;14.80;99.90
55642;DHT22;41509;53.108;6.100;2022-09-09T01:40:08;14.80;99.90
55642;DHT22;41509;53.108;6.100;2022-09-09T01:42:34;14.80;99.90
55642;DHT22;41509;53.108;6.100;2022-09-09T01:45:01;14.80;99.90
55642;DHT22;41509;53.108;6.100;2022-09-09T01:47:30;14.80;99.90
55642;DHT22;41509;53.108;6.100;2022-09-09T01:49:57;14.80;99.90
55642;DHT22;41509;53.108;6.100;2022-09-09T01:52:23;14.90;99.90
55642;DHT22;41509;53.108;6.100;2022-09-09T01:54:52;14.80;99.90
55642;DHT22;41509;53.108;6.100;2022-09-09T01:57:29;14.80;99.90
55642;DHT22;41509;53.108;6.100;2022-09-09T02:00:10;14.80;99.90
55642;DHT22;41509;53.108;6.100;2022-09-09T02:05:41;14.80;99.90
55642;DHT22;41509;53.108;6.100;2022-09-09T02:08:09;14.80;99.90
55642;DHT22;41509;53.108;6.100;2022-09-09T02:11:11;14.80;99.90
55642;DHT22;41509;53.108;6.100;2022-09-09T02:13:40;14.80;99.90
55642;DHT22;41509;53.108;6.100;2022-09-09T02:16:15;14.80;99.90
55642;DHT22;41509;53.108;6.100;2022-09-09T02:21:29;14.80;99.90
55642;DHT22;41509;53.108;6.100;2022-09-09T02:23:59;14.80;99.90
55642;DHT22;41509;53.108;6.100;2022-09-09T02:26:26;14.90;99.90
55642;DHT22;41509;53.108;6.100;2022-09-09T02:28:55;14.80;99.90
55642;DHT22;41509;53.108;6.100;2022-09-09T02:31:25;14.80;99.90
55642;DHT22;41509;53.108;6.100;2022-09-09T02:33:55;14.80;99.90
55642;DHT22;41509;53.108;6.100;2022-09-09T02:36:26;14.80;99.90
55642;DHT22;41509;53.108;6.100;2022-09-09T02:38:57;14.80;99.90
55642;DHT22;41509;53.108;6.100;2022-09-09T02:41:31;14.70;99.90
55642;DHT22;41509;53.108;6.100;2022-09-09T02:43:58;14.70;99.90
55642;DHT22;41509;53.108;6.100;2022-09-09T02:49:09;14.70;99.90
55642;DHT22;41509;53.108;6.100;2022-09-09T02:51:38;14.70;99.90
55642;DHT22;41509;53.108;6.100;2022-09-09T02:54:20;14.70;99.90
55642;DHT22;41509;53.108;6.100;2022-09-09T02:57:11;14.80;99.90
55642;DHT22;41509;53.108;6.100;2022-09-09T02:59:38;14.70;99.90
55642;DHT22;41509;53.108;6.100;2022-09-09T03:02:04;14.70;99.90
55642;DHT22;41509;53.108;6.100;2022-09-09T03:04:30;14.70;99.90
55642;DHT22;41509;53.108;6.100;2022-09-09T03:06:58;14.70;99.90
55642;DHT22;41509;53.108;6.100;2022-09-09T03:09:24;14.70;99.90
55642;DHT22;41509;53.108;6.100;2022-09-09T03:11:51;14.70;99.90
55642;DHT22;41509;53.108;6.100;2022-09-09T03:14:17;14.60;99.90
55642;DHT22;41509;53.108;6.100;2022-09-09T03:16:47;14.70;99.90
55642;DHT22;41509;53.108;6.100;2022-09-09T03:19:13;14.70;99.90
55642;DHT22;41509;53.108;6.100;2022-09-09T03:21:39;14.60;99.90
55642;DHT22;41509;53.108;6.100;2022-09-09T03:24:05;14.60;99.90
55642;DHT22;41509;53.108;6.100;2022-09-09T03:26:32;14.60;99.90
55642;DHT22;41509;53.108;6.100;2022-09-09T03:28:58;14.60;99.90
55642;DHT22;41509;53.108;6.100;2022-09-09T03:31:26;14.60;99.90
55642;DHT22;41509;53.108;6.100;2022-09-09T03:33:56;14.60;99.90
55642;DHT22;41509;53.108;6.100;2022-09-09T03:36:22;14.60;99.90
55642;DHT22;41509;53.108;6.100;2022-09-09T03:38:48;14.60;99.90
55642;DHT22;41509;53.108;6.100;2022-09-09T03:41:14;14.70;99.90
55642;DHT22;41509;53.108;6.100;2022-09-09T03:43:40;14.70;99.90
55642;DHT22;41509;53.108;6.100;2022-09-09T03:46:06;14.70;99.90
55642;DHT22;41509;53.108;6.100;2022-09-09T03:48:32;14.70;99.90
55642;DHT22;41509;53.108;6.100;2022-09-09T03:50:58;14.70;99.90
55642;DHT22;41509;53.108;6.100;2022-09-09T03:53:26;14.70;99.90
55642;DHT22;41509;53.108;6.100;2022-09-09T03:55:53;14.60;99.90
55642;DHT22;41509;53.108;6.100;2022-09-09T03:58:25;14.70;99.90
55642;DHT22;41509;53.108;6.100;2022-09-09T04:01:01;14.70;99.90
55642;DHT22;41509;53.108;6.100;2022-09-09T04:03:27;14.70;99.90
55642;DHT22;41509;53.108;6.100;2022-09-09T04:05:54;14.70;99.90
55642;DHT22;41509;53.108;6.100;2022-09-09T04:08:21;14.70;99.90
55642;DHT22;41509;53.108;6.100;2022-09-09T04:10:47;14.70;99.90
55642;DHT22;41509;53.108;6.100;2022-09-09T04:13:14;14.70;99.90
55642;DHT22;41509;53.108;6.100;2022-09-09T04:15:40;14.70;99.90
55642;DHT22;41509;53.108;6.100;2022-09-09T04:18:06;14.70;99.90
55642;DHT22;41509;53.108;6.100;2022-09-09T04:20:32;14.70;99.90
55642;DHT22;41509;53.108;6.100;2022-09-09T04:22:58;14.70;99.90
55642;DHT22;41509;53.108;6.100;2022-09-09T04:25:24;14.70;99.90
55642;DHT22;41509;53.108;6.100;2022-09-09T04:27:54;14.70;99.90
55642;DHT22;41509;53.108;6.100;2022-09-09T04:30:20;14.70;99.90
55642;DHT22;41509;53.108;6.100;2022-09-09T04:32:46;14.70;99.90
55642;DHT22;41509;53.108;6.100;2022-09-09T04:35:12;14.70;99.90
55642;DHT22;41509;53.108;6.100;2022-09-09T04:37:38;14.80;99.90
55642;DHT22;41509;53.108;6.100;2022-09-09T04:40:04;14.80;99.90
55642;DHT22;41509;53.108;6.100;2022-09-09T04:42:29;14.80;99.90
55642;DHT22;41509;53.108;6.100;2022-09-09T04:44:55;14.80;99.90
55642;DHT22;41509;53.108;6.100;2022-09-09T04:47:21;14.80;99.90
55642;DHT22;41509;53.108;6.100;2022-09-09T04:49:46;14.80;99.90
55642;DHT22;41509;53.108;6.100;2022-09-09T04:52:12;14.80;99.90
55642;DHT22;41509;53.108;6.100;2022-09-09T04:54:38;14.80;99.90
55642;DHT22;41509;53.108;6.100;2022-09-09T04:57:04;14.80;99.90
55642;DHT22;41509;53.108;6.100;2022-09-09T04:59:30;14.80;99.90
55642;DHT22;41509;53.108;6.100;2022-09-09T05:01:56;14.80;99.90
55642;DHT22;41509;53.108;6.100;2022-09-09T05:04:22;14.80;99.90
55642;DHT22;41509;53.108;6.100;2022-09-09T05:06:47;14.80;99.90
55642;DHT22;41509;53.108;6.100;2022-09-09T05:09:13;14.90;99.90
55642;DHT22;41509;53.108;6.100;2022-09-09T05:11:39;14.80;99.90
55642;DHT22;41509;53.108;6.100;2022-09-09T05:14:05;14.90;99.90
55642;DHT22;41509;53.108;6.100;2022-09-09T05:16:31;14.90;99.90
55642;DHT22;41509;53.108;6.100;2022-09-09T05:18:57;14.90;99.90
55642;DHT22;41509;53.108;6.100;2022-09-09T05:21:24;14.90;99.90
55642;DHT22;41509;53.108;6.100;2022-09-09T05:23:51;14.90;99.90
55642;DHT22;41509;53.108;6.100;2022-09-09T05:26:19;14.90;99.90
55642;DHT22;41509;53.108;6.100;2022-09-09T05:28:45;14.90;99.90
55642;DHT22;41509;53.108;6.100;2022-09-09T05:31:13;14.90;99.90
55642;DHT22;41509;53.108;6.100;2022-09-09T05:33:43;14.90;99.90
55642;DHT22;41509;53.108;6.100;2022-09-09T05:36:12;14.90;99.90
55642;DHT22;41509;53.108;6.100;2022-09-09T05:38:39;14.90;99.90
55642;DHT22;41509;53.108;6.100;2022-09-09T05:41:06;14.90;99.90
55642;DHT22;41509;53.108;6.100;2022-09-09T05:43:32;14.90;99.90
55642;DHT22;41509;53.108;6.100;2022-09-09T05:46:09;14.90;99.90
55642;DHT22;41509;53.108;6.100;2022-09-09T05:48:37;14.90;99.90
55642;DHT22;41509;53.108;6.100;2022-09-09T05:51:04;14.90;99.90
55642;DHT22;41509;53.108;6.100;2022-09-09T05:53:30;14.90;99.90
55642;DHT22;41509;53.108;6.100;2022-09-09T05:56:25;14.90;99.90
55642;DHT22;41509;53.108;6.100;2022-09-09T05:58:52;14.90;99.90
55642;DHT22;41509;53.108;6.100;2022-09-09T06:01:31;14.90;99.90
55642;DHT22;41509;53.108;6.100;2022-09-09T06:03:57;14.90;99.90
55642;DHT22;41509;53.108;6.100;2022-09-09T06:06:25;15.00;99.90
55642;DHT22;41509;53.108;6.100;2022-09-09T06:08:53;14.90;99.90
55642;DHT22;41509;53.108;6.100;2022-09-09T06:11:24;15.00;99.90
55642;DHT22;41509;53.108;6.100;2022-09-09T06:13:50;15.00;99.90
55642;DHT22;41509;53.108;6.100;2022-09-09T06:16:24;15.00;99.90
55642;DHT22;41509;53.108;6.100;2022-09-09T06:18:52;15.00;99.90
55642;DHT22;41509;53.108;6.100;2022-09-09T06:21:21;15.00;99.90
55642;DHT22;41509;53.108;6.100;2022-09-09T06:23:48;15.00;99.90
55642;DHT22;41509;53.108;6.100;2022-09-09T06:26:46;15.00;99.90
55642;DHT22;41509;53.108;6.100;2022-09-09T06:29:14;15.10;99.90
55642;DHT22;41509;53.108;6.100;2022-09-09T06:31:40;15.10;99.90
55642;DHT22;41509;53.108;6.100;2022-09-09T06:34:08;15.10;99.90
55642;DHT22;41509;53.108;6.100;2022-09-09T06:36:36;15.10;99.90
55642;DHT22;41509;53.108;6.100;2022-09-09T06:39:02;15.10;99.90
55642;DHT22;41509;53.108;6.100;2022-09-09T06:41:30;15.10;99.90
55642;DHT22;41509;53.108;6.100;2022-09-09T06:43:56;15.10;99.90
55642;DHT22;41509;53.108;6.100;2022-09-09T06:46:24;15.10;99.90
55642;DHT22;41509;53.108;6.100;2022-09-09T06:48:53;15.20;99.90
55642;DHT22;41509;53.108;6.100;2022-09-09T06:51:22;15.20;99.90
55642;DHT22;41509;53.108;6.100;2022-09-09T06:53:53;15.20;99.90
55642;DHT22;41509;53.108;6.100;2022-09-09T06:58:50;15.20;99.90
55642;DHT22;41509;53.108;6.100;2022-09-09T07:01:19;15.20;99.90
55642;DHT22;41509;53.108;6.100;2022-09-09T07:03:51;15.20;99.90
55642;DHT22;41509;53.108;6.100;2022-09-09T07:06:20;15.30;99.90
55642;DHT22;41509;53.108;6.100;2022-09-09T07:08:51;15.30;99.90
55642;DHT22;41509;53.108;6.100;2022-09-09T07:11:17;15.30;99.90
55642;DHT22;41509;53.108;6.100;2022-09-09T07:13:43;15.30;99.90
55642;DHT22;41509;53.108;6.100;2022-09-09T07:16:14;15.30;99.90
55642;DHT22;41509;53.108;6.100;2022-09-09T07:18:41;15.40;99.90
55642;DHT22;41509;53.108;6.100;2022-09-09T07:21:08;15.40;99.90
55642;DHT22;41509;53.108;6.100;2022-09-09T07:23:34;15.40;99.90
55642;DHT22;41509;53.108;6.100;2022-09-09T07:26:02;15.40;99.90
55642;DHT22;41509;53.108;6.100;2022-09-09T07:28:27;15.40;99.90
55642;DHT22;41509;53.108;6.100;2022-09-09T07:31:02;15.40;99.90
55642;DHT22;41509;53.108;6.100;2022-09-09T07:33:28;15.50;99.90
55642;DHT22;41509;53.108;6.100;2022-09-09T07:36:10;15.50;99.90
55642;DHT22;41509;53.108;6.100;2022-09-09T07:38:42;15.60;99.90
55642;DHT22;41509;53.108;6.100;2022-09-09T07:41:15;15.60;99.90
55642;DHT22;41509;53.108;6.100;2022-09-09T07:43:42;15.60;99.90
55642;DHT22;41509;53.108;6.100;2022-09-09T07:46:09;15.70;99.90
55642;DHT22;41509;53.108;6.100;2022-09-09T07:48:36;15.70;99.90
55642;DHT22;41509;53.108;6.100;2022-09-09T07:51:11;15.80;99.90
55642;DHT22;41509;53.108;6.100;2022-09-09T07:53:38;15.80;99.90
55642;DHT22;41509;53.108;6.100;2022-09-09T07:56:08;15.80;99.90
55642;DHT22;41509;53.108;6.100;2022-09-09T07:58:38;15.80;99.90
55642;DHT22;41509;53.108;6.100;2022-09-09T08:01:09;15.90;99.90
55642;DHT22;41509;53.108;6.100;2022-09-09T08:03:36;15.90;99.90
55642;DHT22;41509;53.108;6.100;2022-09-09T08:06:07;15.90;99.90
55642;DHT22;41509;53.108;6.100;2022-09-09T08:08:35;16.00;99.90
55642;DHT22;41509;53.108;6.100;2022-09-09T08:11:12;16.10;99.90
55642;DHT22;41509;53.108;6.100;2022-09-09T08:13:39;16.10;99.90
55642;DHT22;41509;53.108;6.100;2022-09-09T08:16:17;16.10;99.90
55642;DHT22;41509;53.108;6.100;2022-09-09T08:18:43;16.20;99.90
55642;DHT22;41509;53.108;6.100;2022-09-09T08:21:15;16.20;99.90
55642;DHT22;41509;53.108;6.100;2022-09-09T08:23:43;16.30;99.90
55642;DHT22;41509;53.108;6.100;2022-09-09T08:26:15;16.30;99.90
55642;DHT22;41509;53.108;6.100;2022-09-09T08:28:42;16.40;99.90
55642;DHT22;41509;53.108;6.100;2022-09-09T08:31:15;16.40;99.90
55642;DHT22;41509;53.108;6.100;2022-09-09T08:33:43;16.50;99.90
55642;DHT22;41509;53.108;6.100;2022-09-09T08:36:13;16.50;99.90
55642;DHT22;41509;53.108;6.100;2022-09-09T08:38:41;16.50;99.90
55642;DHT22;41509;53.108;6.100;2022-09-09T08:46:46;16.70;99.90
55642;DHT22;41509;53.108;6.100;2022-09-09T08:52:13;16.80;99.90
55642;DHT22;41509;53.108;6.100;2022-09-09T08:54:41;16.90;99.90
55642;DHT22;41509;53.108;6.100;2022-09-09T08:57:14;16.90;99.90
55642;DHT22;41509;53.108;6.100;2022-09-09T08:59:40;16.90;99.90
55642;DHT22;41509;53.108;6.100;2022-09-09T09:02:16;17.00;99.90
55642;DHT22;41509;53.108;6.100;2022-09-09T09:07:50;17.10;99.90
55642;DHT22;41509;53.108;6.100;2022-09-09T09:13:18;17.30;99.90
55642;DHT22;41509;53.108;6.100;2022-09-09T09:15:50;17.40;99.90
55642;DHT22;41509;53.108;6.100;2022-09-09T09:18:17;17.50;99.90
55642;DHT22;41509;53.108;6.100;2022-09-09T09:21:02;17.50;99.90
55642;DHT22;41509;53.108;6.100;2022-09-09T09:23:44;17.50;99.90
55642;DHT22;41509;53.108;6.100;2022-09-09T09:26:10;17.50;99.90
55642;DHT22;41509;53.108;6.100;2022-09-09T09:28:37;17.60;99.90
55642;DHT22;41509;53.108;6.100;2022-09-09T09:31:12;17.60;99.90
55642;DHT22;41509;53.108;6.100;2022-09-09T09:33:51;17.60;99.90
55642;DHT22;41509;53.108;6.100;2022-09-09T09:36:19;17.60;99.90
55642;DHT22;41509;53.108;6.100;2022-09-09T09:39:02;17.60;99.90
55642;DHT22;41509;53.108;6.100;2022-09-09T09:41:49;17.70;99.90
55642;DHT22;41509;53.108;6.100;2022-09-09T09:44:29;17.70;99.90
55642;DHT22;41509;53.108;6.100;2022-09-09T09:47:25;17.60;99.90
55642;DHT22;41509;53.108;6.100;2022-09-09T09:49:59;17.60;99.90
55642;DHT22;41509;53.108;6.100;2022-09-09T09:52:30;17.60;99.90
55642;DHT22;41509;53.108;6.100;2022-09-09T09:54:57;17.60;99.90
55642;DHT22;41509;53.108;6.100;2022-09-09T09:57:27;17.70;99.90
55642;DHT22;41509;53.108;6.100;2022-09-09T10:00:04;17.70;99.90
55642;DHT22;41509;53.108;6.100;2022-09-09T10:02:39;17.70;99.90
55642;DHT22;41509;53.108;6.100;2022-09-09T10:05:14;17.80;99.90
55642;DHT22;41509;53.108;6.100;2022-09-09T10:07:41;17.80;99.90
55642;DHT22;41509;53.108;6.100;2022-09-09T10:10:24;17.90;99.90
55642;DHT22;41509;53.108;6.100;2022-09-09T10:13:14;18.00;99.90
55642;DHT22;41509;53.108;6.100;2022-09-09T10:39:52;18.20;99.90
55642;DHT22;41509;53.108;6.100;2022-09-09T10:42:25;18.50;99.90
55642;DHT22;41509;53.108;6.100;2022-09-09T10:53:12;19.10;99.90
55642;DHT22;41509;53.108;6.100;2022-09-09T10:55:49;19.10;99.90
55642;DHT22;41509;53.108;6.100;2022-09-09T10:58:30;19.30;99.90
55642;DHT22;41509;53.108;6.100;2022-09-09T11:01:06;19.40;99.90
55642;DHT22;41509;53.108;6.100;2022-09-09T11:03:35;19.50;99.90
55642;DHT22;41509;53.108;6.100;2022-09-09T11:06:09;19.70;99.90
55642;DHT22;41509;53.108;6.100;2022-09-09T11:08:39;19.80;99.90
55642;DHT22;41509;53.108;6.100;2022-09-09T11:14:15;19.80;99.90
55642;DHT22;41509;53.108;6.100;2022-09-09T11:16:49;19.60;99.90
55642;DHT22;41509;53.108;6.100;2022-09-09T11:21:52;19.40;99.90
55642;DHT22;41509;53.108;6.100;2022-09-09T11:26:55;19.40;99.90
55642;DHT22;41509;53.108;6.100;2022-09-09T11:29:53;19.40;99.90
55642;DHT22;41509;53.108;6.100;2022-09-09T11:37:57;19.40;99.90
55642;DHT22;41509;53.108;6.100;2022-09-09T11:40:28;19.30;99.90
55642;DHT22;41509;53.108;6.100;2022-09-09T11:43:44;19.30;99.90
55642;DHT22;41509;53.108;6.100;2022-09-09T11:46:08;19.20;99.90
55642;DHT22;41509;53.108;6.100;2022-09-09T11:48:37;19.00;99.90
55642;DHT22;41509;53.108;6.100;2022-09-09T11:51:26;19.00;99.90
55642;DHT22;41509;53.108;6.100;2022-09-09T11:53:59;18.80;99.90
55642;DHT22;41509;53.108;6.100;2022-09-09T11:56:41;18.80;99.90
55642;DHT22;41509;53.108;6.100;2022-09-09T11:59:23;18.70;99.90
55642;DHT22;41509;53.108;6.100;2022-09-09T12:04:39;18.70;99.90
55642;DHT22;41509;53.108;6.100;2022-09-09T12:12:35;19.00;99.90
55642;DHT22;41509;53.108;6.100;2022-09-09T12:17:53;19.20;99.90
55642;DHT22;41509;53.108;6.100;2022-09-09T12:23:22;19.30;99.90
55642;DHT22;41509;53.108;6.100;2022-09-09T12:33:39;19.50;99.90
55642;DHT22;41509;53.108;6.100;2022-09-09T12:36:19;19.50;99.90
55642;DHT22;41509;53.108;6.100;2022-09-09T12:38:46;19.40;99.90
55642;DHT22;41509;53.108;6.100;2022-09-09T12:41:18;19.40;99.90
55642;DHT22;41509;53.108;6.100;2022-09-09T12:43:45;19.40;99.90
55642;DHT22;41509;53.108;6.100;2022-09-09T12:46:22;19.30;99.90
55642;DHT22;41509;53.108;6.100;2022-09-09T12:48:53;19.40;99.90
55642;DHT22;41509;53.108;6.100;2022-09-09T12:51:25;19.40;99.90
55642;DHT22;41509;53.108;6.100;2022-09-09T12:53:52;19.40;99.90
55642;DHT22;41509;53.108;6.100;2022-09-09T12:56:23;19.40;99.90
55642;DHT22;41509;53.108;6.100;2022-09-09T12:58:54;19.40;99.90
55642;DHT22;41509;53.108;6.100;2022-09-09T13:01:31;19.40;99.90
55642;DHT22;41509;53.108;6.100;2022-09-09T13:03:58;19.40;99.90
55642;DHT22;41509;53.108;6.100;2022-09-09T13:06:27;19.40;99.90
55642;DHT22;41509;53.108;6.100;2022-09-09T13:08:54;19.40;99.90
55642;DHT22;41509;53.108;6.100;2022-09-09T13:11:29;19.30;99.90
55642;DHT22;41509;53.108;6.100;2022-09-09T13:13:58;19.20;99.90
55642;DHT22;41509;53.108;6.100;2022-09-09T13:16:32;19.10;99.90
55642;DHT22;41509;53.108;6.100;2022-09-09T13:19:00;19.10;99.90
55642;DHT22;41509;53.108;6.100;2022-09-09T13:21:38;18.90;99.90
55642;DHT22;41509;53.108;6.100;2022-09-09T13:24:06;18.80;99.90
55642;DHT22;41509;53.108;6.100;2022-09-09T13:26:33;18.80;99.90
55642;DHT22;41509;53.108;6.100;2022-09-09T13:29:29;18.90;99.90
55642;DHT22;41509;53.108;6.100;2022-09-09T13:32:04;19.10;99.90
55642;DHT22;41509;53.108;6.100;2022-09-09T13:34:35;19.30;99.90
55642;DHT22;41509;53.108;6.100;2022-09-09T13:37:03;19.50;99.90
55642;DHT22;41509;53.108;6.100;2022-09-09T13:39:39;19.50;99.90
55642;DHT22;41509;53.108;6.100;2022-09-09T13:42:05;19.40;99.90
55642;DHT22;41509;53.108;6.100;2022-09-09T13:44:37;19.30;99.90
55642;DHT22;41509;53.108;6.100;2022-09-09T13:47:15;19.20;99.90
55642;DHT22;41509;53.108;6.100;2022-09-09T13:49:42;19.20;99.90
55642;DHT22;41509;53.108;6.100;2022-09-09T13:54:36;19.60;99.90
55642;DHT22;41509;53.108;6.100;2022-09-09T13:57:01;19.80;99.90
55642;DHT22;41509;53.108;6.100;2022-09-09T13:59:27;20.00;99.90
55642;DHT22;41509;53.108;6.100;2022-09-09T14:01:53;20.00;99.90
55642;DHT22;41509;53.108;6.100;2022-09-09T14:04:20;19.90;99.90
55642;DHT22;41509;53.108;6.100;2022-09-09T14:06:49;20.00;99.90
55642;DHT22;41509;53.108;6.100;2022-09-09T14:09:17;20.10;99.90
55642;DHT22;41509;53.108;6.100;2022-09-09T14:11:44;20.30;99.90
55642;DHT22;41509;53.108;6.100;2022-09-09T14:14:11;20.40;99.90
55642;DHT22;41509;53.108;6.100;2022-09-09T14:16:36;20.60;99.90
55642;DHT22;41509;53.108;6.100;2022-09-09T14:19:03;20.50;99.90
55642;DHT22;41509;53.108;6.100;2022-09-09T14:21:29;20.50;99.90
55642;DHT22;41509;53.108;6.100;2022-09-09T14:23:55;20.70;99.90
55642;DHT22;41509;53.108;6.100;2022-09-09T14:26:24;20.80;99.90
55642;DHT22;41509;53.108;6.100;2022-09-09T14:28:50;21.10;99.90
55642;DHT22;41509;53.108;6.100;2022-09-09T14:31:18;21.20;99.90
55642;DHT22;41509;53.108;6.100;2022-09-09T14:33:44;21.20;99.90
55642;DHT22;41509;53.108;6.100;2022-09-09T14:36:11;21.20;99.90
55642;DHT22;41509;53.108;6.100;2022-09-09T14:38:37;21.20;99.90
55642;DHT22;41509;53.108;6.100;2022-09-09T14:41:08;21.30;99.90
55642;DHT22;41509;53.108;6.100;2022-09-09T14:43:34;21.30;99.90
55642;DHT22;41509;53.108;6.100;2022-09-09T14:46:06;21.10;99.90
55642;DHT22;41509;53.108;6.100;2022-09-09T14:48:32;21.00;99.90
55642;DHT22;41509;53.108;6.100;2022-09-09T14:51:07;21.00;99.90
55642;DHT22;41509;53.108;6.100;2022-09-09T14:53:33;20.80;99.90
55642;DHT22;41509;53.108;6.100;2022-09-09T14:58:31;20.50;99.90
55642;DHT22;41509;53.108;6.100;2022-09-09T15:01:04;20.30;99.90
55642;DHT22;41509;53.108;6.100;2022-09-09T15:03:30;20.30;99.90
55642;DHT22;41509;53.108;6.100;2022-09-09T15:05:56;20.30;99.90
55642;DHT22;41509;53.108;6.100;2022-09-09T15:08:24;20.30;99.90
55642;DHT22;41509;53.108;6.100;2022-09-09T15:10:59;20.20;99.90
55642;DHT22;41509;53.108;6.100;2022-09-09T15:13:25;20.10;99.90
55642;DHT22;41509;53.108;6.100;2022-09-09T15:15:51;20.00;99.90
55642;DHT22;41509;53.108;6.100;2022-09-09T15:18:16;19.90;99.90
55642;DHT22;41509;53.108;6.100;2022-09-09T15:20:45;19.80;99.90
55642;DHT22;41509;53.108;6.100;2022-09-09T15:23:12;19.60;99.90
55642;DHT22;41509;53.108;6.100;2022-09-09T15:25:37;19.20;99.90
55642;DHT22;41509;53.108;6.100;2022-09-09T15:28:03;19.00;99.90
55642;DHT22;41509;53.108;6.100;2022-09-09T15:30:29;18.80;99.90
55642;DHT22;41509;53.108;6.100;2022-09-09T15:32:55;18.70;99.90
55642;DHT22;41509;53.108;6.100;2022-09-09T15:35:20;18.50;99.90
55642;DHT22;41509;53.108;6.100;2022-09-09T15:37:46;18.40;99.90
55642;DHT22;41509;53.108;6.100;2022-09-09T15:40:11;18.30;99.90
55642;DHT22;41509;53.108;6.100;2022-09-09T15:42:37;18.10;99.90
55642;DHT22;41509;53.108;6.100;2022-09-09T15:45:04;18.00;99.90
55642;DHT22;41509;53.108;6.100;2022-09-09T15:47:31;18.00;99.90
55642;DHT22;41509;53.108;6.100;2022-09-09T15:49:57;18.00;99.90
55642;DHT22;41509;53.108;6.100;2022-09-09T15:52:23;18.00;99.90
55642;DHT22;41509;53.108;6.100;2022-09-09T15:54:48;18.00;99.90
55642;DHT22;41509;53.108;6.100;2022-09-09T15:57:14;18.00;99.90
55642;DHT22;41509;53.108;6.100;2022-09-09T15:59:40;18.00;99.90
55642;DHT22;41509;53.108;6.100;2022-09-09T16:02:06;18.00;99.90
55642;DHT22;41509;53.108;6.100;2022-09-09T16:04:32;18.00;99.90
55642;DHT22;41509;53.108;6.100;2022-09-09T16:07:02;18.00;99.90
55642;DHT22;41509;53.108;6.100;2022-09-09T16:09:29;18.00;99.90
55642;DHT22;41509;53.108;6.100;2022-09-09T16:12:00;18.00;99.90
55642;DHT22;41509;53.108;6.100;2022-09-09T16:14:32;18.10;99.90
55642;DHT22;41509;53.108;6.100;2022-09-09T16:17:01;18.10;99.90
55642;DHT22;41509;53.108;6.100;2022-09-09T16:19:27;18.10;99.90
55642;DHT22;41509;53.108;6.100;2022-09-09T16:21:53;18.10;99.90
55642;DHT22;41509;53.108;6.100;2022-09-09T16:24:19;18.10;99.90
55642;DHT22;41509;53.108;6.100;2022-09-09T16:26:50;18.10;99.90
55642;DHT22;41509;53.108;6.100;2022-09-09T16:29:17;18.10;99.90
55642;DHT22;41509;53.108;6.100;2022-09-09T16:31:46;18.10;99.90
55642;DHT22;41509;53.108;6.100;2022-09-09T16:34:12;18.10;99.90
55642;DHT22;41509;53.108;6.100;2022-09-09T16:36:41;18.10;99.90
55642;DHT22;41509;53.108;6.100;2022-09-09T16:39:09;18.00;99.90
55642;DHT22;41509;53.108;6.100;2022-09-09T16:41:35;18.10;99.90
55642;DHT22;41509;53.108;6.100;2022-09-09T16:44:03;18.00;99.90
55642;DHT22;41509;53.108;6.100;2022-09-09T16:46:31;18.00;99.90
55642;DHT22;41509;53.108;6.100;2022-09-09T16:48:58;18.00;99.90
55642;DHT22;41509;53.108;6.100;2022-09-09T16:51:30;18.00;99.90
55642;DHT22;41509;53.108;6.100;2022-09-09T16:53:58;18.00;99.90
55642;DHT22;41509;53.108;6.100;2022-09-09T16:56:27;17.90;99.90
55642;DHT22;41509;53.108;6.100;2022-09-09T16:58:56;17.90;99.90
55642;DHT22;41509;53.108;6.100;2022-09-09T17:01:23;17.80;99.90
55642;DHT22;41509;53.108;6.100;2022-09-09T17:03:53;17.80;99.90
55642;DHT22;41509;53.108;6.100;2022-09-09T17:06:19;17.90;99.90
55642;DHT22;41509;53.108;6.100;2022-09-09T17:08:44;17.80;99.90
55642;DHT22;41509;53.108;6.100;2022-09-09T17:11:15;17.80;99.90
55642;DHT22;41509;53.108;6.100;2022-09-09T17:13:45;17.80;99.90
55642;DHT22;41509;53.108;6.100;2022-09-09T17:16:13;17.80;99.90
55642;DHT22;41509;53.108;6.100;2022-09-09T17:18:39;17.80;99.90
55642;DHT22;41509;53.108;6.100;2022-09-09T17:21:13;17.80;99.90
55642;DHT22;41509;53.108;6.100;2022-09-09T17:23:40;17.70;99.90
55642;DHT22;41509;53.108;6.100;2022-09-09T17:26:08;17.70;99.90
55642;DHT22;41509;53.108;6.100;2022-09-09T17:28:35;17.70;99.90
55642;DHT22;41509;53.108;6.100;2022-09-09T17:31:01;17.70;99.90
55642;DHT22;41509;53.108;6.100;2022-09-09T17:33:29;17.70;99.90
55642;DHT22;41509;53.108;6.100;2022-09-09T17:36:00;17.70;99.90
55642;DHT22;41509;53.108;6.100;2022-09-09T17:38:28;17.60;99.90
55642;DHT22;41509;53.108;6.100;2022-09-09T17:41:09;17.60;99.90
55642;DHT22;41509;53.108;6.100;2022-09-09T17:43:51;17.60;99.90
55642;DHT22;41509;53.108;6.100;2022-09-09T17:46:33;17.60;99.90
55642;DHT22;41509;53.108;6.100;2022-09-09T17:49:02;17.60;99.90
55642;DHT22;41509;53.108;6.100;2022-09-09T17:51:33;17.60;99.90
55642;DHT22;41509;53.108;6.100;2022-09-09T17:54:02;17.60;99.90
55642;DHT22;41509;53.108;6.100;2022-09-09T17:56:30;17.60;99.90
55642;DHT22;41509;53.108;6.100;2022-09-09T17:58:58;17.60;99.90
55642;DHT22;41509;53.108;6.100;2022-09-09T18:01:32;17.60;99.90
55642;DHT22;41509;53.108;6.100;2022-09-09T18:04:00;17.60;99.90
55642;DHT22;41509;53.108;6.100;2022-09-09T18:06:28;17.60;99.90
55642;DHT22;41509;53.108;6.100;2022-09-09T18:09:00;17.50;99.90
55642;DHT22;41509;53.108;6.100;2022-09-09T18:11:32;17.50;99.90
55642;DHT22;41509;53.108;6.100;2022-09-09T18:14:01;17.50;99.90
55642;DHT22;41509;53.108;6.100;2022-09-09T18:16:29;17.50;99.90
55642;DHT22;41509;53.108;6.100;2022-09-09T18:18:56;17.40;99.90